Portada
METAR-TAF:

METAR-TAF

Aeroports :

Pohnpei, Micronèsia

latitud: 06-59N, longitud: 158-12E, altitud: 2 m

Observació

L'informe es va fer fa 16 hores i 40 minuts, a les 03:50 UTC
Vent 5 kt del Nord-Est
Temperatura 31°C
Humitat 71%
Pressió 1009 hPa
Visibilitat: 24.1 km
Núvols disperses a una alçada de 1700 ft, Cumulus congestus.
Cel ennuvolat a una alçada de 13000 ft
Cel cobert a una alçada de 30000 ft

METAR: PTPN 170350Z 05005KT 15SM SCT017TCU BKN130 OVC300 31/25 A2980 RMK TCU S-SW LAST

Hora: 07:30 (20:30 UTC)

Pronòstic

L'informe es va fer fa 21 hores i 9 minuts, a les 23:21 UTC
Pronòstic vàlid del 17 a les 00 UTC al 17 a les 24 UTC
Vent 7 kt del Est/Nord-Est
Visibilitat: 10 km
Núvols disperses a una alçada de 2000 ft
Cel ennuvolat a una alçada de 15000 ft
xàfecs en les proximitats

TAF: PTPN 162321Z 1700/1724 07007KT P6SM VCSH SCT020 BKN150

Observacions i pronòstics meteorològics de més de 4000 aeroports (METAR i TAF).

Les estacions disponibles són els punts grocs i vermells al mapa.

Posi el ratolí al punt desitjat per veure el nom de l'estació.

Feu clic per veure les observacions i els pronòstics meteorològics.

Per canviar el mapa: feu clic els botons verds amb una creu de color negre per apropar; al botó verd amb un guió per allunyar la imatge; o en les fletxes verdes per a mapes adjacents.


METAR-TAF: